sensor_id;sensor_type;location;lat;lon;timestamp;P1;durP1;ratioP1;P2;durP2;ratioP2
13584;SDS011;6863;48.402;9.994;2023-02-04T00:01:43;2.13;;;2.03;;
13584;SDS011;6863;48.402;9.994;2023-02-04T00:04:10;1.93;;;1.83;;
13584;SDS011;6863;48.402;9.994;2023-02-04T00:06:36;2.70;;;2.50;;
13584;SDS011;6863;48.402;9.994;2023-02-04T00:09:02;2.20;;;2.00;;
13584;SDS011;6863;48.402;9.994;2023-02-04T00:11:28;2.73;;;2.50;;
13584;SDS011;6863;48.402;9.994;2023-02-04T00:13:53;2.70;;;2.50;;
13584;SDS011;6863;48.402;9.994;2023-02-04T00:16:19;2.80;;;2.60;;
13584;SDS011;6863;48.402;9.994;2023-02-04T00:18:44;3.47;;;2.23;;
13584;SDS011;6863;48.402;9.994;2023-02-04T00:21:10;3.00;;;2.70;;
13584;SDS011;6863;48.402;9.994;2023-02-04T00:23:36;4.00;;;3.03;;
13584;SDS011;6863;48.402;9.994;2023-02-04T00:26:01;3.40;;;2.70;;
13584;SDS011;6863;48.402;9.994;2023-02-04T00:28:27;2.70;;;2.50;;
13584;SDS011;6863;48.402;9.994;2023-02-04T00:30:52;3.93;;;2.90;;
13584;SDS011;6863;48.402;9.994;2023-02-04T00:33:18;3.40;;;2.53;;
13584;SDS011;6863;48.402;9.994;2023-02-04T00:35:44;3.03;;;2.73;;
13584;SDS011;6863;48.402;9.994;2023-02-04T00:38:09;3.50;;;3.20;;
13584;SDS011;6863;48.402;9.994;2023-02-04T00:40:35;3.23;;;2.93;;
13584;SDS011;6863;48.402;9.994;2023-02-04T00:43:01;3.73;;;3.20;;
13584;SDS011;6863;48.402;9.994;2023-02-04T00:45:27;4.17;;;3.70;;
13584;SDS011;6863;48.402;9.994;2023-02-04T00:47:52;2.97;;;2.77;;
13584;SDS011;6863;48.402;9.994;2023-02-04T00:50:18;4.50;;;2.87;;
13584;SDS011;6863;48.402;9.994;2023-02-04T00:52:44;3.63;;;2.63;;
13584;SDS011;6863;48.402;9.994;2023-02-04T00:55:10;2.93;;;2.63;;
13584;SDS011;6863;48.402;9.994;2023-02-04T00:57:37;3.97;;;2.37;;
13584;SDS011;6863;48.402;9.994;2023-02-04T01:00:03;3.20;;;2.37;;
13584;SDS011;6863;48.402;9.994;2023-02-04T01:02:29;3.43;;;2.77;;
13584;SDS011;6863;48.402;9.994;2023-02-04T01:04:55;3.57;;;2.63;;
13584;SDS011;6863;48.402;9.994;2023-02-04T01:07:20;3.50;;;3.07;;
13584;SDS011;6863;48.402;9.994;2023-02-04T01:09:46;3.00;;;2.70;;
13584;SDS011;6863;48.402;9.994;2023-02-04T01:12:11;2.70;;;2.50;;
13584;SDS011;6863;48.402;9.994;2023-02-04T01:14:37;3.60;;;2.40;;
13584;SDS011;6863;48.402;9.994;2023-02-04T01:17:03;2.50;;;2.30;;
13584;SDS011;6863;48.402;9.994;2023-02-04T01:19:28;2.60;;;2.10;;
13584;SDS011;6863;48.402;9.994;2023-02-04T01:21:54;2.63;;;2.23;;
13584;SDS011;6863;48.402;9.994;2023-02-04T01:24:19;1.90;;;1.80;;
13584;SDS011;6863;48.402;9.994;2023-02-04T01:26:45;2.10;;;2.00;;
13584;SDS011;6863;48.402;9.994;2023-02-04T01:29:10;1.93;;;1.83;;
13584;SDS011;6863;48.402;9.994;2023-02-04T01:31:36;1.53;;;1.40;;
13584;SDS011;6863;48.402;9.994;2023-02-04T01:34:02;1.77;;;1.63;;
13584;SDS011;6863;48.402;9.994;2023-02-04T01:36:27;1.70;;;1.60;;
13584;SDS011;6863;48.402;9.994;2023-02-04T01:38:53;1.80;;;1.70;;
13584;SDS011;6863;48.402;9.994;2023-02-04T01:41:19;1.80;;;1.70;;
13584;SDS011;6863;48.402;9.994;2023-02-04T01:43:45;2.07;;;1.80;;
13584;SDS011;6863;48.402;9.994;2023-02-04T01:46:11;2.43;;;1.87;;
13584;SDS011;6863;48.402;9.994;2023-02-04T01:48:37;2.10;;;1.77;;
13584;SDS011;6863;48.402;9.994;2023-02-04T01:51:04;3.37;;;2.03;;
13584;SDS011;6863;48.402;9.994;2023-02-04T01:53:32;2.00;;;1.80;;
13584;SDS011;6863;48.402;9.994;2023-02-04T01:55:59;2.47;;;1.90;;
13584;SDS011;6863;48.402;9.994;2023-02-04T01:58:25;5.67;;;2.30;;
13584;SDS011;6863;48.402;9.994;2023-02-04T02:00:51;2.90;;;2.13;;
13584;SDS011;6863;48.402;9.994;2023-02-04T02:03:16;4.00;;;2.10;;
13584;SDS011;6863;48.402;9.994;2023-02-04T02:05:43;3.53;;;2.77;;
13584;SDS011;6863;48.402;9.994;2023-02-04T02:08:10;3.20;;;2.53;;
13584;SDS011;6863;48.402;9.994;2023-02-04T02:10:38;2.37;;;2.00;;
13584;SDS011;6863;48.402;9.994;2023-02-04T02:13:06;2.27;;;2.07;;
13584;SDS011;6863;48.402;9.994;2023-02-04T02:15:34;4.63;;;2.17;;
13584;SDS011;6863;48.402;9.994;2023-02-04T02:18:00;2.70;;;1.97;;
13584;SDS011;6863;48.402;9.994;2023-02-04T02:20:26;3.50;;;2.20;;
13584;SDS011;6863;48.402;9.994;2023-02-04T02:25:48;2.97;;;2.00;;
13584;SDS011;6863;48.402;9.994;2023-02-04T02:28:15;2.10;;;1.90;;
13584;SDS011;6863;48.402;9.994;2023-02-04T02:30:43;5.07;;;2.27;;
13584;SDS011;6863;48.402;9.994;2023-02-04T02:33:10;2.87;;;1.97;;
13584;SDS011;6863;48.402;9.994;2023-02-04T02:35:38;2.20;;;2.10;;
13584;SDS011;6863;48.402;9.994;2023-02-04T02:38:07;2.00;;;1.80;;
13584;SDS011;6863;48.402;9.994;2023-02-04T02:40:36;3.10;;;2.27;;
13584;SDS011;6863;48.402;9.994;2023-02-04T02:43:02;2.53;;;2.13;;
13584;SDS011;6863;48.402;9.994;2023-02-04T02:45:30;3.67;;;2.23;;
13584;SDS011;6863;48.402;9.994;2023-02-04T02:47:57;2.77;;;2.10;;
13584;SDS011;6863;48.402;9.994;2023-02-04T02:50:28;3.27;;;2.23;;
13584;SDS011;6863;48.402;9.994;2023-02-04T02:52:56;5.00;;;2.13;;
13584;SDS011;6863;48.402;9.994;2023-02-04T02:55:26;2.27;;;1.90;;
13584;SDS011;6863;48.402;9.994;2023-02-04T02:57:52;2.23;;;2.07;;
13584;SDS011;6863;48.402;9.994;2023-02-04T03:00:21;2.20;;;2.00;;
13584;SDS011;6863;48.402;9.994;2023-02-04T03:05:28;5.73;;;2.10;;
13584;SDS011;6863;48.402;9.994;2023-02-04T03:07:56;4.20;;;1.93;;
13584;SDS011;6863;48.402;9.994;2023-02-04T03:10:22;4.20;;;2.30;;
13584;SDS011;6863;48.402;9.994;2023-02-04T03:12:48;2.27;;;1.80;;
13584;SDS011;6863;48.402;9.994;2023-02-04T03:15:14;4.77;;;2.63;;
13584;SDS011;6863;48.402;9.994;2023-02-04T03:17:40;5.53;;;2.20;;
13584;SDS011;6863;48.402;9.994;2023-02-04T03:20:07;2.00;;;1.90;;
13584;SDS011;6863;48.402;9.994;2023-02-04T03:22:33;2.70;;;2.00;;
13584;SDS011;6863;48.402;9.994;2023-02-04T03:24:59;1.90;;;1.77;;
13584;SDS011;6863;48.402;9.994;2023-02-04T03:27:25;2.70;;;2.13;;
13584;SDS011;6863;48.402;9.994;2023-02-04T03:29:51;3.20;;;2.17;;
13584;SDS011;6863;48.402;9.994;2023-02-04T03:32:16;4.17;;;2.90;;
13584;SDS011;6863;48.402;9.994;2023-02-04T03:34:42;6.87;;;2.57;;
13584;SDS011;6863;48.402;9.994;2023-02-04T03:37:07;4.70;;;2.67;;
13584;SDS011;6863;48.402;9.994;2023-02-04T03:39:33;2.87;;;2.30;;
13584;SDS011;6863;48.402;9.994;2023-02-04T03:41:58;4.00;;;2.63;;
13584;SDS011;6863;48.402;9.994;2023-02-04T03:44:24;6.10;;;2.50;;
13584;SDS011;6863;48.402;9.994;2023-02-04T03:46:51;3.50;;;2.70;;
13584;SDS011;6863;48.402;9.994;2023-02-04T03:49:19;4.10;;;2.40;;
13584;SDS011;6863;48.402;9.994;2023-02-04T03:51:45;4.33;;;2.73;;
13584;SDS011;6863;48.402;9.994;2023-02-04T03:54:11;2.83;;;2.60;;
13584;SDS011;6863;48.402;9.994;2023-02-04T03:56:37;5.20;;;3.10;;
13584;SDS011;6863;48.402;9.994;2023-02-04T03:59:02;5.47;;;3.17;;
13584;SDS011;6863;48.402;9.994;2023-02-04T04:01:28;4.30;;;2.60;;
13584;SDS011;6863;48.402;9.994;2023-02-04T04:03:53;11.33;;;3.20;;
13584;SDS011;6863;48.402;9.994;2023-02-04T04:06:19;4.40;;;2.80;;
13584;SDS011;6863;48.402;9.994;2023-02-04T04:08:44;7.20;;;3.10;;
13584;SDS011;6863;48.402;9.994;2023-02-04T04:11:10;6.27;;;2.90;;
13584;SDS011;6863;48.402;9.994;2023-02-04T04:13:36;8.00;;;3.63;;
13584;SDS011;6863;48.402;9.994;2023-02-04T04:16:01;6.93;;;3.33;;
13584;SDS011;6863;48.402;9.994;2023-02-04T04:18:28;5.47;;;3.27;;
13584;SDS011;6863;48.402;9.994;2023-02-04T04:20:55;4.33;;;2.57;;
13584;SDS011;6863;48.402;9.994;2023-02-04T04:23:20;5.73;;;3.13;;
13584;SDS011;6863;48.402;9.994;2023-02-04T04:25:46;4.47;;;2.93;;
13584;SDS011;6863;48.402;9.994;2023-02-04T04:28:11;6.80;;;3.10;;
13584;SDS011;6863;48.402;9.994;2023-02-04T04:30:37;5.07;;;3.30;;
13584;SDS011;6863;48.402;9.994;2023-02-04T04:33:03;7.23;;;3.23;;
13584;SDS011;6863;48.402;9.994;2023-02-04T04:35:28;5.13;;;2.93;;
13584;SDS011;6863;48.402;9.994;2023-02-04T04:37:54;7.20;;;3.90;;
13584;SDS011;6863;48.402;9.994;2023-02-04T04:40:19;7.23;;;3.33;;
13584;SDS011;6863;48.402;9.994;2023-02-04T04:42:45;5.97;;;3.20;;
13584;SDS011;6863;48.402;9.994;2023-02-04T04:45:11;6.53;;;2.87;;
13584;SDS011;6863;48.402;9.994;2023-02-04T04:47:36;5.80;;;3.20;;
13584;SDS011;6863;48.402;9.994;2023-02-04T04:50:02;4.67;;;3.13;;
13584;SDS011;6863;48.402;9.994;2023-02-04T04:52:29;6.87;;;2.80;;
13584;SDS011;6863;48.402;9.994;2023-02-04T04:54:54;5.27;;;2.77;;
13584;SDS011;6863;48.402;9.994;2023-02-04T04:57:20;6.20;;;2.83;;
13584;SDS011;6863;48.402;9.994;2023-02-04T04:59:46;5.53;;;3.20;;
13584;SDS011;6863;48.402;9.994;2023-02-04T05:02:11;5.03;;;2.73;;
13584;SDS011;6863;48.402;9.994;2023-02-04T05:04:37;6.73;;;2.60;;
13584;SDS011;6863;48.402;9.994;2023-02-04T05:07:02;4.87;;;3.03;;
13584;SDS011;6863;48.402;9.994;2023-02-04T05:09:28;7.70;;;3.10;;
13584;SDS011;6863;48.402;9.994;2023-02-04T05:11:54;6.17;;;3.10;;
13584;SDS011;6863;48.402;9.994;2023-02-04T05:14:20;8.10;;;2.83;;
13584;SDS011;6863;48.402;9.994;2023-02-04T05:16:45;5.00;;;3.10;;
13584;SDS011;6863;48.402;9.994;2023-02-04T05:19:11;6.23;;;2.87;;
13584;SDS011;6863;48.402;9.994;2023-02-04T05:21:36;6.77;;;2.70;;
13584;SDS011;6863;48.402;9.994;2023-02-04T05:24:02;4.80;;;3.30;;
13584;SDS011;6863;48.402;9.994;2023-02-04T05:26:30;5.50;;;3.07;;
13584;SDS011;6863;48.402;9.994;2023-02-04T05:28:56;5.10;;;3.13;;
13584;SDS011;6863;48.402;9.994;2023-02-04T05:31:24;7.30;;;3.20;;
13584;SDS011;6863;48.402;9.994;2023-02-04T05:33:49;5.33;;;2.97;;
13584;SDS011;6863;48.402;9.994;2023-02-04T05:36:15;7.50;;;3.40;;
13584;SDS011;6863;48.402;9.994;2023-02-04T05:38:41;5.07;;;2.90;;
13584;SDS011;6863;48.402;9.994;2023-02-04T05:41:07;6.83;;;2.90;;
13584;SDS011;6863;48.402;9.994;2023-02-04T05:43:33;7.33;;;3.40;;
13584;SDS011;6863;48.402;9.994;2023-02-04T05:45:59;10.40;;;3.97;;
13584;SDS011;6863;48.402;9.994;2023-02-04T05:48:25;6.50;;;3.33;;
13584;SDS011;6863;48.402;9.994;2023-02-04T05:50:51;8.70;;;3.77;;
13584;SDS011;6863;48.402;9.994;2023-02-04T05:53:16;6.77;;;3.47;;
13584;SDS011;6863;48.402;9.994;2023-02-04T05:55:42;6.53;;;3.67;;
13584;SDS011;6863;48.402;9.994;2023-02-04T05:58:08;7.97;;;3.60;;
13584;SDS011;6863;48.402;9.994;2023-02-04T06:00:33;10.23;;;4.00;;
13584;SDS011;6863;48.402;9.994;2023-02-04T06:02:59;5.73;;;3.50;;
13584;SDS011;6863;48.402;9.994;2023-02-04T06:05:25;6.53;;;3.03;;
13584;SDS011;6863;48.402;9.994;2023-02-04T06:07:50;6.43;;;3.10;;
13584;SDS011;6863;48.402;9.994;2023-02-04T06:10:16;8.07;;;4.30;;
13584;SDS011;6863;48.402;9.994;2023-02-04T06:12:41;8.77;;;3.43;;
13584;SDS011;6863;48.402;9.994;2023-02-04T06:15:07;6.53;;;3.77;;
13584;SDS011;6863;48.402;9.994;2023-02-04T06:17:33;6.10;;;3.27;;
13584;SDS011;6863;48.402;9.994;2023-02-04T06:19:59;6.33;;;3.70;;
13584;SDS011;6863;48.402;9.994;2023-02-04T06:22:25;7.17;;;3.67;;
13584;SDS011;6863;48.402;9.994;2023-02-04T06:24:50;6.10;;;3.53;;
13584;SDS011;6863;48.402;9.994;2023-02-04T06:27:16;6.13;;;3.53;;
13584;SDS011;6863;48.402;9.994;2023-02-04T06:29:47;7.77;;;3.87;;
13584;SDS011;6863;48.402;9.994;2023-02-04T06:32:17;7.70;;;4.37;;
13584;SDS011;6863;48.402;9.994;2023-02-04T06:34:43;5.07;;;3.07;;
13584;SDS011;6863;48.402;9.994;2023-02-04T06:37:09;5.30;;;3.03;;
13584;SDS011;6863;48.402;9.994;2023-02-04T06:39:34;5.07;;;3.67;;
13584;SDS011;6863;48.402;9.994;2023-02-04T06:42:00;8.33;;;3.57;;
13584;SDS011;6863;48.402;9.994;2023-02-04T06:44:26;9.43;;;3.83;;
13584;SDS011;6863;48.402;9.994;2023-02-04T06:46:52;7.53;;;3.30;;
13584;SDS011;6863;48.402;9.994;2023-02-04T06:49:17;6.30;;;4.00;;
13584;SDS011;6863;48.402;9.994;2023-02-04T06:51:43;10.97;;;4.13;;
13584;SDS011;6863;48.402;9.994;2023-02-04T06:54:08;8.37;;;3.60;;
13584;SDS011;6863;48.402;9.994;2023-02-04T06:56:34;9.67;;;4.17;;
13584;SDS011;6863;48.402;9.994;2023-02-04T06:59:00;3.87;;;3.33;;
13584;SDS011;6863;48.402;9.994;2023-02-04T07:01:26;12.37;;;4.53;;
13584;SDS011;6863;48.402;9.994;2023-02-04T07:03:51;6.70;;;3.57;;
13584;SDS011;6863;48.402;9.994;2023-02-04T07:06:17;9.13;;;3.17;;
13584;SDS011;6863;48.402;9.994;2023-02-04T07:08:45;7.03;;;2.93;;
13584;SDS011;6863;48.402;9.994;2023-02-04T07:11:13;6.23;;;3.30;;
13584;SDS011;6863;48.402;9.994;2023-02-04T07:13:39;8.93;;;3.87;;
13584;SDS011;6863;48.402;9.994;2023-02-04T07:16:05;10.13;;;4.20;;
13584;SDS011;6863;48.402;9.994;2023-02-04T07:18:31;6.47;;;3.53;;
13584;SDS011;6863;48.402;9.994;2023-02-04T07:20:57;10.23;;;3.40;;
13584;SDS011;6863;48.402;9.994;2023-02-04T07:23:22;4.70;;;3.33;;
13584;SDS011;6863;48.402;9.994;2023-02-04T07:25:49;7.07;;;3.57;;
13584;SDS011;6863;48.402;9.994;2023-02-04T07:28:17;7.73;;;3.40;;
13584;SDS011;6863;48.402;9.994;2023-02-04T07:30:43;6.00;;;2.80;;
13584;SDS011;6863;48.402;9.994;2023-02-04T07:33:09;4.40;;;3.10;;
13584;SDS011;6863;48.402;9.994;2023-02-04T07:35:35;6.73;;;3.07;;
13584;SDS011;6863;48.402;9.994;2023-02-04T07:38:02;9.67;;;3.70;;
13584;SDS011;6863;48.402;9.994;2023-02-04T07:40:28;9.27;;;3.17;;
13584;SDS011;6863;48.402;9.994;2023-02-04T07:42:54;10.37;;;3.57;;
13584;SDS011;6863;48.402;9.994;2023-02-04T07:45:19;7.07;;;3.33;;
13584;SDS011;6863;48.402;9.994;2023-02-04T07:47:45;6.20;;;3.13;;
13584;SDS011;6863;48.402;9.994;2023-02-04T07:50:11;6.23;;;3.40;;
13584;SDS011;6863;48.402;9.994;2023-02-04T07:52:37;7.70;;;3.20;;
13584;SDS011;6863;48.402;9.994;2023-02-04T07:55:03;6.17;;;3.33;;
13584;SDS011;6863;48.402;9.994;2023-02-04T07:57:29;8.47;;;3.87;;
13584;SDS011;6863;48.402;9.994;2023-02-04T07:59:55;6.50;;;3.13;;
13584;SDS011;6863;48.402;9.994;2023-02-04T08:02:20;6.70;;;3.30;;
13584;SDS011;6863;48.402;9.994;2023-02-04T08:04:46;7.77;;;3.37;;
13584;SDS011;6863;48.402;9.994;2023-02-04T08:07:11;7.93;;;3.47;;
13584;SDS011;6863;48.402;9.994;2023-02-04T08:09:37;9.67;;;4.60;;
13584;SDS011;6863;48.402;9.994;2023-02-04T08:12:03;6.83;;;3.53;;
13584;SDS011;6863;48.402;9.994;2023-02-04T08:14:28;5.77;;;3.03;;
13584;SDS011;6863;48.402;9.994;2023-02-04T08:16:54;6.17;;;3.10;;
13584;SDS011;6863;48.402;9.994;2023-02-04T08:19:19;8.87;;;3.33;;
13584;SDS011;6863;48.402;9.994;2023-02-04T08:21:45;6.93;;;3.83;;
13584;SDS011;6863;48.402;9.994;2023-02-04T08:24:12;7.20;;;3.90;;
13584;SDS011;6863;48.402;9.994;2023-02-04T08:26:39;7.40;;;3.67;;
13584;SDS011;6863;48.402;9.994;2023-02-04T08:29:05;7.93;;;3.87;;
13584;SDS011;6863;48.402;9.994;2023-02-04T08:31:31;10.83;;;3.67;;
13584;SDS011;6863;48.402;9.994;2023-02-04T08:33:56;8.07;;;3.43;;
13584;SDS011;6863;48.402;9.994;2023-02-04T08:36:22;5.57;;;3.37;;
13584;SDS011;6863;48.402;9.994;2023-02-04T08:38:48;5.00;;;3.10;;
13584;SDS011;6863;48.402;9.994;2023-02-04T08:41:13;6.67;;;3.10;;
13584;SDS011;6863;48.402;9.994;2023-02-04T08:43:39;6.80;;;3.27;;
13584;SDS011;6863;48.402;9.994;2023-02-04T08:46:04;5.27;;;3.70;;
13584;SDS011;6863;48.402;9.994;2023-02-04T08:48:30;8.53;;;4.93;;
13584;SDS011;6863;48.402;9.994;2023-02-04T08:50:55;10.93;;;5.27;;
13584;SDS011;6863;48.402;9.994;2023-02-04T08:53:21;9.93;;;3.83;;
13584;SDS011;6863;48.402;9.994;2023-02-04T08:55:47;8.43;;;4.40;;
13584;SDS011;6863;48.402;9.994;2023-02-04T08:58:12;9.33;;;4.23;;
13584;SDS011;6863;48.402;9.994;2023-02-04T09:00:38;5.97;;;3.50;;
13584;SDS011;6863;48.402;9.994;2023-02-04T09:03:03;6.03;;;3.07;;
13584;SDS011;6863;48.402;9.994;2023-02-04T09:05:29;7.53;;;2.80;;
13584;SDS011;6863;48.402;9.994;2023-02-04T09:07:54;5.30;;;3.47;;
13584;SDS011;6863;48.402;9.994;2023-02-04T09:10:20;6.20;;;3.10;;
13584;SDS011;6863;48.402;9.994;2023-02-04T09:12:45;6.67;;;3.13;;
13584;SDS011;6863;48.402;9.994;2023-02-04T09:15:12;10.10;;;3.43;;
13584;SDS011;6863;48.402;9.994;2023-02-04T09:17:37;12.17;;;3.17;;
13584;SDS011;6863;48.402;9.994;2023-02-04T09:20:03;11.50;;;4.37;;
13584;SDS011;6863;48.402;9.994;2023-02-04T09:22:29;5.00;;;2.80;;
13584;SDS011;6863;48.402;9.994;2023-02-04T09:24:55;6.60;;;3.20;;
13584;SDS011;6863;48.402;9.994;2023-02-04T09:27:21;9.10;;;3.20;;
13584;SDS011;6863;48.402;9.994;2023-02-04T09:29:46;5.40;;;3.00;;
13584;SDS011;6863;48.402;9.994;2023-02-04T09:32:12;8.13;;;2.93;;
13584;SDS011;6863;48.402;9.994;2023-02-04T09:34:38;4.10;;;2.77;;
13584;SDS011;6863;48.402;9.994;2023-02-04T09:37:03;6.10;;;2.90;;
13584;SDS011;6863;48.402;9.994;2023-02-04T09:39:29;6.40;;;2.97;;
13584;SDS011;6863;48.402;9.994;2023-02-04T09:41:54;8.30;;;3.23;;
13584;SDS011;6863;48.402;9.994;2023-02-04T09:44:21;8.40;;;2.73;;
13584;SDS011;6863;48.402;9.994;2023-02-04T09:46:51;8.63;;;3.20;;
13584;SDS011;6863;48.402;9.994;2023-02-04T09:49:18;7.27;;;3.10;;
13584;SDS011;6863;48.402;9.994;2023-02-04T09:51:44;7.40;;;3.10;;
13584;SDS011;6863;48.402;9.994;2023-02-04T09:54:13;5.33;;;3.20;;
13584;SDS011;6863;48.402;9.994;2023-02-04T09:56:43;8.83;;;4.07;;
13584;SDS011;6863;48.402;9.994;2023-02-04T09:59:13;6.30;;;3.30;;
13584;SDS011;6863;48.402;9.994;2023-02-04T10:01:40;9.23;;;3.20;;
13584;SDS011;6863;48.402;9.994;2023-02-04T10:04:12;6.10;;;3.30;;
13584;SDS011;6863;48.402;9.994;2023-02-04T10:06:39;7.47;;;3.07;;
13584;SDS011;6863;48.402;9.994;2023-02-04T10:09:08;9.13;;;3.70;;
13584;SDS011;6863;48.402;9.994;2023-02-04T10:11:38;7.10;;;3.03;;
13584;SDS011;6863;48.402;9.994;2023-02-04T10:14:05;4.20;;;3.10;;
13584;SDS011;6863;48.402;9.994;2023-02-04T10:16:38;7.13;;;3.47;;
13584;SDS011;6863;48.402;9.994;2023-02-04T10:19:09;5.83;;;3.70;;
13584;SDS011;6863;48.402;9.994;2023-02-04T10:21:38;7.53;;;3.27;;
13584;SDS011;6863;48.402;9.994;2023-02-04T10:24:15;6.67;;;2.60;;
13584;SDS011;6863;48.402;9.994;2023-02-04T10:26:46;8.77;;;3.50;;
13584;SDS011;6863;48.402;9.994;2023-02-04T10:29:13;7.17;;;3.47;;
13584;SDS011;6863;48.402;9.994;2023-02-04T10:31:45;9.43;;;3.57;;
13584;SDS011;6863;48.402;9.994;2023-02-04T10:34:23;9.90;;;4.07;;
13584;SDS011;6863;48.402;9.994;2023-02-04T10:36:59;8.87;;;3.17;;
13584;SDS011;6863;48.402;9.994;2023-02-04T10:39:41;6.73;;;2.87;;
13584;SDS011;6863;48.402;9.994;2023-02-04T10:42:21;11.53;;;3.23;;
13584;SDS011;6863;48.402;9.994;2023-02-04T10:44:50;5.30;;;3.03;;
13584;SDS011;6863;48.402;9.994;2023-02-04T10:47:23;5.73;;;3.07;;
13584;SDS011;6863;48.402;9.994;2023-02-04T10:49:58;6.07;;;2.90;;
13584;SDS011;6863;48.402;9.994;2023-02-04T10:52:36;6.47;;;3.33;;
13584;SDS011;6863;48.402;9.994;2023-02-04T10:55:04;7.03;;;3.43;;
13584;SDS011;6863;48.402;9.994;2023-02-04T10:57:34;13.67;;;4.30;;
13584;SDS011;6863;48.402;9.994;2023-02-04T11:00:06;7.13;;;3.33;;
13584;SDS011;6863;48.402;9.994;2023-02-04T11:07:40;5.97;;;3.60;;
13584;SDS011;6863;48.402;9.994;2023-02-04T11:10:09;5.80;;;3.53;;
13584;SDS011;6863;48.402;9.994;2023-02-04T11:12:42;10.63;;;4.20;;
13584;SDS011;6863;48.402;9.994;2023-02-04T11:20:43;7.70;;;3.27;;
13584;SDS011;6863;48.402;9.994;2023-02-04T11:23:29;4.77;;;2.83;;
13584;SDS011;6863;48.402;9.994;2023-02-04T11:33:46;6.27;;;3.20;;
13584;SDS011;6863;48.402;9.994;2023-02-04T11:36:14;7.20;;;3.13;;
13584;SDS011;6863;48.402;9.994;2023-02-04T11:38:48;7.33;;;3.53;;
13584;SDS011;6863;48.402;9.994;2023-02-04T11:41:15;7.20;;;3.03;;
13584;SDS011;6863;48.402;9.994;2023-02-04T11:43:52;10.00;;;3.77;;
13584;SDS011;6863;48.402;9.994;2023-02-04T11:46:19;8.07;;;3.35;;
13584;SDS011;6863;48.402;9.994;2023-02-04T11:48:45;7.95;;;3.95;;
13584;SDS011;6863;48.402;9.994;2023-02-04T11:51:18;8.23;;;4.18;;
13584;SDS011;6863;48.402;9.994;2023-02-04T11:53:50;6.32;;;3.78;;
13584;SDS011;6863;48.402;9.994;2023-02-04T11:56:17;7.90;;;3.70;;
13584;SDS011;6863;48.402;9.994;2023-02-04T11:58:44;6.13;;;3.90;;
13584;SDS011;6863;48.402;9.994;2023-02-04T12:01:19;8.13;;;3.83;;
13584;SDS011;6863;48.402;9.994;2023-02-04T12:03:46;5.68;;;3.42;;
13584;SDS011;6863;48.402;9.994;2023-02-04T12:06:20;5.47;;;3.17;;
13584;SDS011;6863;48.402;9.994;2023-02-04T12:08:46;8.23;;;3.40;;
13584;SDS011;6863;48.402;9.994;2023-02-04T12:11:23;8.52;;;3.40;;
13584;SDS011;6863;48.402;9.994;2023-02-04T12:13:54;6.22;;;3.22;;
13584;SDS011;6863;48.402;9.994;2023-02-04T12:16:22;6.35;;;3.15;;
13584;SDS011;6863;48.402;9.994;2023-02-04T12:18:48;7.05;;;3.05;;
13584;SDS011;6863;48.402;9.994;2023-02-04T12:21:14;6.88;;;2.97;;
13584;SDS011;6863;48.402;9.994;2023-02-04T12:23:42;7.13;;;3.60;;
13584;SDS011;6863;48.402;9.994;2023-02-04T12:26:11;6.13;;;2.95;;
13584;SDS011;6863;48.402;9.994;2023-02-04T12:28:37;6.67;;;4.07;;
13584;SDS011;6863;48.402;9.994;2023-02-04T12:31:02;6.80;;;2.90;;
13584;SDS011;6863;48.402;9.994;2023-02-04T12:33:28;5.83;;;2.77;;
13584;SDS011;6863;48.402;9.994;2023-02-04T12:35:54;5.27;;;2.70;;
13584;SDS011;6863;48.402;9.994;2023-02-04T12:38:19;4.37;;;2.20;;
13584;SDS011;6863;48.402;9.994;2023-02-04T12:40:45;8.07;;;3.03;;
13584;SDS011;6863;48.402;9.994;2023-02-04T12:43:10;5.00;;;2.90;;
13584;SDS011;6863;48.402;9.994;2023-02-04T12:45:36;6.93;;;3.13;;
13584;SDS011;6863;48.402;9.994;2023-02-04T12:48:03;7.50;;;3.53;;
13584;SDS011;6863;48.402;9.994;2023-02-04T12:50:29;6.93;;;3.40;;
13584;SDS011;6863;48.402;9.994;2023-02-04T12:52:55;6.67;;;3.37;;
13584;SDS011;6863;48.402;9.994;2023-02-04T12:55:23;5.07;;;3.33;;
13584;SDS011;6863;48.402;9.994;2023-02-04T12:57:50;8.83;;;3.50;;
13584;SDS011;6863;48.402;9.994;2023-02-04T13:00:16;6.70;;;3.47;;
13584;SDS011;6863;48.402;9.994;2023-02-04T13:02:43;5.40;;;3.07;;
13584;SDS011;6863;48.402;9.994;2023-02-04T13:05:09;3.57;;;2.50;;
13584;SDS011;6863;48.402;9.994;2023-02-04T13:07:35;5.27;;;2.10;;
13584;SDS011;6863;48.402;9.994;2023-02-04T13:10:01;4.77;;;2.43;;
13584;SDS011;6863;48.402;9.994;2023-02-04T13:12:28;4.60;;;2.40;;
13584;SDS011;6863;48.402;9.994;2023-02-04T13:14:53;5.40;;;2.97;;
13584;SDS011;6863;48.402;9.994;2023-02-04T13:17:19;4.63;;;2.00;;
13584;SDS011;6863;48.402;9.994;2023-02-04T13:19:45;4.00;;;2.37;;
13584;SDS011;6863;48.402;9.994;2023-02-04T13:22:10;4.90;;;2.33;;
13584;SDS011;6863;48.402;9.994;2023-02-04T13:24:36;4.53;;;2.23;;
13584;SDS011;6863;48.402;9.994;2023-02-04T13:27:01;5.00;;;2.07;;
13584;SDS011;6863;48.402;9.994;2023-02-04T13:29:27;4.17;;;2.17;;
13584;SDS011;6863;48.402;9.994;2023-02-04T13:31:53;4.00;;;1.63;;
13584;SDS011;6863;48.402;9.994;2023-02-04T13:34:18;2.90;;;1.90;;
13584;SDS011;6863;48.402;9.994;2023-02-04T13:36:44;5.60;;;2.33;;
13584;SDS011;6863;48.402;9.994;2023-02-04T13:39:10;4.13;;;1.80;;
13584;SDS011;6863;48.402;9.994;2023-02-04T13:41:41;4.37;;;2.67;;
13584;SDS011;6863;48.402;9.994;2023-02-04T13:44:07;3.33;;;2.00;;
13584;SDS011;6863;48.402;9.994;2023-02-04T13:46:33;3.23;;;1.97;;
13584;SDS011;6863;48.402;9.994;2023-02-04T13:48:59;6.07;;;2.67;;
13584;SDS011;6863;48.402;9.994;2023-02-04T13:51:24;4.87;;;2.17;;
13584;SDS011;6863;48.402;9.994;2023-02-04T13:53:50;2.00;;;1.80;;
13584;SDS011;6863;48.402;9.994;2023-02-04T13:56:16;3.43;;;2.03;;
13584;SDS011;6863;48.402;9.994;2023-02-04T13:58:41;3.53;;;2.10;;
13584;SDS011;6863;48.402;9.994;2023-02-04T14:01:09;3.77;;;2.00;;
13584;SDS011;6863;48.402;9.994;2023-02-04T14:03:35;2.70;;;2.07;;
13584;SDS011;6863;48.402;9.994;2023-02-04T14:06:01;6.43;;;2.00;;
13584;SDS011;6863;48.402;9.994;2023-02-04T14:08:27;3.77;;;1.77;;
13584;SDS011;6863;48.402;9.994;2023-02-04T14:10:52;2.80;;;1.90;;
13584;SDS011;6863;48.402;9.994;2023-02-04T14:13:18;3.90;;;1.80;;
13584;SDS011;6863;48.402;9.994;2023-02-04T14:15:44;3.67;;;2.00;;
13584;SDS011;6863;48.402;9.994;2023-02-04T14:18:10;3.93;;;2.07;;
13584;SDS011;6863;48.402;9.994;2023-02-04T14:20:36;3.03;;;1.93;;
13584;SDS011;6863;48.402;9.994;2023-02-04T14:23:02;3.40;;;1.73;;
13584;SDS011;6863;48.402;9.994;2023-02-04T14:25:29;3.37;;;2.00;;
13584;SDS011;6863;48.402;9.994;2023-02-04T14:27:55;4.27;;;1.87;;
13584;SDS011;6863;48.402;9.994;2023-02-04T14:30:22;3.10;;;2.17;;
13584;SDS011;6863;48.402;9.994;2023-02-04T14:32:49;3.47;;;2.10;;
13584;SDS011;6863;48.402;9.994;2023-02-04T14:35:15;3.93;;;2.20;;
13584;SDS011;6863;48.402;9.994;2023-02-04T14:37:42;2.93;;;1.90;;
13584;SDS011;6863;48.402;9.994;2023-02-04T14:40:11;4.43;;;2.33;;
13584;SDS011;6863;48.402;9.994;2023-02-04T14:42:38;4.53;;;2.23;;
13584;SDS011;6863;48.402;9.994;2023-02-04T14:45:07;4.93;;;2.17;;
13584;SDS011;6863;48.402;9.994;2023-02-04T14:47:34;4.50;;;2.30;;
13584;SDS011;6863;48.402;9.994;2023-02-04T14:50:00;6.13;;;2.20;;
13584;SDS011;6863;48.402;9.994;2023-02-04T14:52:27;2.63;;;2.10;;
13584;SDS011;6863;48.402;9.994;2023-02-04T14:54:52;5.53;;;2.20;;
13584;SDS011;6863;48.402;9.994;2023-02-04T14:57:18;4.83;;;2.30;;
13584;SDS011;6863;48.402;9.994;2023-02-04T14:59:43;5.30;;;3.30;;
13584;SDS011;6863;48.402;9.994;2023-02-04T15:02:09;4.57;;;2.80;;
13584;SDS011;6863;48.402;9.994;2023-02-04T15:04:35;3.77;;;2.30;;
13584;SDS011;6863;48.402;9.994;2023-02-04T15:07:03;6.90;;;3.17;;
13584;SDS011;6863;48.402;9.994;2023-02-04T15:09:29;5.70;;;3.10;;
13584;SDS011;6863;48.402;9.994;2023-02-04T15:11:55;4.03;;;2.90;;
13584;SDS011;6863;48.402;9.994;2023-02-04T15:14:20;5.33;;;3.40;;
13584;SDS011;6863;48.402;9.994;2023-02-04T15:16:46;7.57;;;2.65;;
13584;SDS011;6863;48.402;9.994;2023-02-04T15:19:16;4.18;;;2.28;;
13584;SDS011;6863;48.402;9.994;2023-02-04T15:21:47;5.75;;;2.63;;